Beogradi, Serbia

03:58 PM CET on mars 03, 2015 (GMT +0100)
Beograd-Karaburma | Change Station
CLOSE
Current Station
Personal Weather Stations
Location: Beograd-Karaburma, SRBIJA
Elevation: 355 ft
Nearby Weather Stations

Elev 355 ft 44.81 °N, 20.53 °E | Updated 3 minutes ago

Clear
i kthjellet
50.2 °F
Feels Like 50.2 °F
N
8.0
Era e paqendrueshme Era from VP
Gusts 13.0 mph

Sot
High -- | Low -- °F
--% Chance of Precip.
Yesterday
High -- | Low -- °F
Precip. -- ne
6:13 AM 5:27 PM
Waxing Gibbous, 96% visible
Presioni 30.27 ne
Visioni -9999.0 milje
Clouds
Pika E Veses 26 °F
Lageshtira E ajrit 39%
Rainfall 0.00 ne
Snow Depth Not available.
UV Not available.
Pollen Not available.
Air Quality Not available.
Flu Activity Not available.
METAR LYBE 031430Z 32013KT CAVOK 10/M02 Q1025 NOSIG

More Conditions Fewer Conditions

Presioni 30.27 ne
Visioni -9999.0 milje
Clouds
Pika E Veses 26 °F
Lageshtira E ajrit 39%
Rainfall 0.00 ne
Snow Depth Not available.
UV Not available.
Pollen Not available.
Air Quality Not available.
Flu Activity Not available.
METAR LYBE 031430Z 32013KT CAVOK 10/M02 Q1025 NOSIG

More Conditions Fewer Conditions

10-Day Weather Forecast

Almanac

Astronomy

Mar. 03, 2015 Rise Set
Actual Time
Civil Twilight
Nautical Twilight
Astronomical Twilight
Moon
Length Of Visible Light
Length of Day
Tomorrow will be .
, % of the Moon is Illuminated

Today's Extremes

Country Highs Country Lows

Community

WunderPhotos

Upload Photos

1,802,117 photos uploaded!

WunderBlogs® & News

Nearby

Air Quality

  Air Quality AQ Index Pollutant
Not available.

Snow Depth

Station Depth Elevation

Earthquake Activity

City Distance Mag. Time & Date
Minimum magnitude displayed is 2.5.

Coastal Water Temperatures

Vend Temperatura

Nearby Weather Stations